Meteo Giornale » Osservazioni meteo Iran » Hamadan
ore: 22:30 - Osservazioni Meteo Hamadan
Lat. 34° 52' N Lon. 48° 33' E Alt. 1757 metri s.l.m.
19 °C
Sereno
Temp. 24 Ore
10 °C
32 °C
Ovest/Nord-Ovest
7.4 Km/h
Dew point -6 °C
Umidità 17 %
Visibilità 10 Km
Il sole sorge alle ore 05:48
Il sole tramonta alle ore 18:43
| Data e Ora | Cielo e Fenomeni | T °C | DP °C | Um. % | Pres. hPa | Vis. km | Vento km/h | |
|---|---|---|---|---|---|---|---|---|
| Oggi h: 22:30 | Sereno | 19 | -6 | 17 | 1017 | 10 | O/NO 7.4 | |
| Oggi h: 21:30 | Sereno | 22 | -6 | 14 | 1017 | 10 | O/SO 9.3 | |
| Oggi h: 20:30 | Sereno | 23 | -5 | 14 | 1017 | 10 | O 7.4 | |
| Oggi h: 19:30 | Sereno | 25 | -6 | 12 | 1016 | 10 | O/SO 11.1 | |
| Oggi h: 18:30 | Sereno | 28 | -8 | 8 | 1016 | 10 | O 14.8 | |
| Oggi h: 17:30 | Sereno | 31 | -8 | 7 | 1015 | 10 | O 11.1 | |
| Oggi h: 16:30 | Sereno | 32 | -9 | 6 | 1015 | 10 | O 13 | |
| Oggi h: 15:30 | Sereno | 32 | -12 | 5 | 1015 | 10 | NO 9.3 | |
| Oggi h: 14:30 | Sereno | 31 | -6 | 8 | 1016 | 10 | O/NO 11.1 | |
| Oggi h: 13:30 | Sereno | 30 | -8 | 7 | 1016 | 10 | E 7.4 | |
| Oggi h: 12:30 | Sereno | 29 | -3 | 12 | 1017 | 10 | N 7.4 | |
| Oggi h: 11:30 | Sereno | 28 | -1 | 15 | 1017 | 10 | N 5.5 | |
| Oggi h: 10:30 | Sereno | 25 | 1 | 20 | 1018 | 10 | N/NE 7.4 | |
| Oggi h: 09:30 | Sereno | 23 | 3 | 26 | 1018 | 10 | N 5.5 | |
| Oggi h: 08:30 | Sereno | 21 | 1 | 26 | 1018 | 10 | N 5.5 | |
| Oggi h: 07:30 | Sereno | 18 | -3 | 23 | 1018 | 10 | N 5.5 | |
| Oggi h: 06:30 | Sereno | 11 | -7 | 27 | 1018 | 10 | N 5.5 | |
| Oggi h: 05:30 | Sereno | 10 | -6 | 31 | 1018 | 10 | N 3.7 | |
| Oggi h: 04:30 | Sereno | 11 | -7 | 27 | 1018 | 10 | E/SE 9.3 | |
| Oggi h: 03:30 | Sereno | 13 | -7 | 24 | 1017 | 10 | N 1.8 | |
| Oggi h: 02:30 | Sereno | 12 | -9 | 22 | 1017 | 10 | N 5.5 | |
| Oggi h: 01:30 | Sereno | 13 | -9 | 20 | 1017 | 10 | N 5.5 | |
| Oggi h: 00:30 | Sereno | 15 | -9 | 18 | 1017 | 10 | N 3.7 | |
| Ieri h: 23:30 | Sereno | 17 | -7 | 18 | 1017 | 10 | N 5.5 | |



